sensor_id;sensor_type;location;lat;lon;timestamp;pressure;altitude;pressure_sealevel;temperature;humidity
46087;BME280;31824;49.648;8.640;2023-11-19T00:01:52;100239.44;;;7.86;100.00
46087;BME280;31824;49.648;8.640;2023-11-19T00:04:54;100245.63;;;7.86;100.00
46087;BME280;31824;49.648;8.640;2023-11-19T00:07:56;100244.06;;;7.88;100.00
46087;BME280;31824;49.648;8.640;2023-11-19T00:10:59;100234.88;;;7.92;100.00
46087;BME280;31824;49.648;8.640;2023-11-19T00:14:03;100236.13;;;7.96;100.00
46087;BME280;31824;49.648;8.640;2023-11-19T00:17:05;100222.41;;;7.98;100.00
46087;BME280;31824;49.648;8.640;2023-11-19T00:20:08;100220.28;;;8.03;100.00
46087;BME280;31824;49.648;8.640;2023-11-19T00:23:10;100216.91;;;8.04;100.00
46087;BME280;31824;49.648;8.640;2023-11-19T00:26:13;100211.97;;;8.07;100.00
46087;BME280;31824;49.648;8.640;2023-11-19T00:29:18;100193.81;;;8.08;100.00
46087;BME280;31824;49.648;8.640;2023-11-19T00:32:21;100212.59;;;8.13;100.00
46087;BME280;31824;49.648;8.640;2023-11-19T00:35:22;100210.16;;;8.15;100.00
46087;BME280;31824;49.648;8.640;2023-11-19T00:38:24;100215.69;;;8.18;100.00
46087;BME280;31824;49.648;8.640;2023-11-19T00:41:27;100221.06;;;8.19;100.00
46087;BME280;31824;49.648;8.640;2023-11-19T00:44:29;100218.00;;;8.23;100.00
46087;BME280;31824;49.648;8.640;2023-11-19T00:47:31;100229.88;;;8.28;100.00
46087;BME280;31824;49.648;8.640;2023-11-19T00:50:33;100223.09;;;8.31;100.00
46087;BME280;31824;49.648;8.640;2023-11-19T00:53:39;100213.56;;;8.31;100.00
46087;BME280;31824;49.648;8.640;2023-11-19T00:56:42;100199.69;;;8.32;100.00
46087;BME280;31824;49.648;8.640;2023-11-19T00:59:44;100201.53;;;8.33;100.00
46087;BME280;31824;49.648;8.640;2023-11-19T01:02:46;100210.63;;;8.37;100.00
46087;BME280;31824;49.648;8.640;2023-11-19T01:05:48;100200.31;;;8.38;100.00
46087;BME280;31824;49.648;8.640;2023-11-19T01:08:50;100201.56;;;8.42;100.00
46087;BME280;31824;49.648;8.640;2023-11-19T01:11:53;100203.22;;;8.41;100.00
46087;BME280;31824;49.648;8.640;2023-11-19T01:14:55;100195.53;;;8.43;100.00
46087;BME280;31824;49.648;8.640;2023-11-19T01:17:57;100201.28;;;8.48;100.00
46087;BME280;31824;49.648;8.640;2023-11-19T01:20:59;100204.03;;;8.49;100.00
46087;BME280;31824;49.648;8.640;2023-11-19T01:24:00;100194.03;;;8.54;100.00
46087;BME280;31824;49.648;8.640;2023-11-19T01:27:04;100202.03;;;8.55;100.00
46087;BME280;31824;49.648;8.640;2023-11-19T01:30:07;100210.97;;;8.57;100.00
46087;BME280;31824;49.648;8.640;2023-11-19T01:33:11;100220.06;;;8.61;100.00
46087;BME280;31824;49.648;8.640;2023-11-19T01:36:13;100213.75;;;8.59;100.00
46087;BME280;31824;49.648;8.640;2023-11-19T01:39:15;100208.81;;;8.62;100.00
46087;BME280;31824;49.648;8.640;2023-11-19T01:42:22;100205.28;;;8.61;100.00
46087;BME280;31824;49.648;8.640;2023-11-19T01:45:27;100194.03;;;8.63;100.00
46087;BME280;31824;49.648;8.640;2023-11-19T01:48:33;100191.41;;;8.63;100.00
46087;BME280;31824;49.648;8.640;2023-11-19T01:51:38;100184.19;;;8.60;100.00
46087;BME280;31824;49.648;8.640;2023-11-19T01:54:40;100170.00;;;8.67;100.00
46087;BME280;31824;49.648;8.640;2023-11-19T01:57:43;100190.00;;;8.66;100.00
46087;BME280;31824;49.648;8.640;2023-11-19T02:00:45;100176.28;;;8.69;100.00
46087;BME280;31824;49.648;8.640;2023-11-19T02:03:47;100169.53;;;8.71;100.00
46087;BME280;31824;49.648;8.640;2023-11-19T02:06:51;100154.72;;;8.71;100.00
46087;BME280;31824;49.648;8.640;2023-11-19T02:09:55;100136.88;;;8.76;100.00
46087;BME280;31824;49.648;8.640;2023-11-19T02:13:02;100122.97;;;8.77;100.00
46087;BME280;31824;49.648;8.640;2023-11-19T02:16:07;100105.59;;;8.77;100.00
46087;BME280;31824;49.648;8.640;2023-11-19T02:19:12;100097.25;;;8.82;100.00
46087;BME280;31824;49.648;8.640;2023-11-19T02:22:14;100108.31;;;8.88;100.00
46087;BME280;31824;49.648;8.640;2023-11-19T02:25:19;100101.41;;;8.88;100.00
46087;BME280;31824;49.648;8.640;2023-11-19T02:28:26;100108.78;;;8.92;100.00
46087;BME280;31824;49.648;8.640;2023-11-19T02:31:28;100112.44;;;8.94;100.00
46087;BME280;31824;49.648;8.640;2023-11-19T02:34:30;100116.00;;;8.95;100.00
46087;BME280;31824;49.648;8.640;2023-11-19T02:37:32;100117.34;;;9.00;100.00
46087;BME280;31824;49.648;8.640;2023-11-19T02:40:34;100116.44;;;9.00;100.00
46087;BME280;31824;49.648;8.640;2023-11-19T02:43:37;100100.44;;;8.97;100.00
46087;BME280;31824;49.648;8.640;2023-11-19T02:46:40;100099.69;;;8.98;100.00
46087;BME280;31824;49.648;8.640;2023-11-19T02:49:44;100093.00;;;9.01;100.00
46087;BME280;31824;49.648;8.640;2023-11-19T02:52:46;100093.47;;;9.06;100.00
46087;BME280;31824;49.648;8.640;2023-11-19T02:55:48;100090.22;;;9.08;100.00
46087;BME280;31824;49.648;8.640;2023-11-19T02:58:53;100087.75;;;9.10;100.00
46087;BME280;31824;49.648;8.640;2023-11-19T03:01:55;100082.66;;;9.11;100.00
46087;BME280;31824;49.648;8.640;2023-11-19T03:04:57;100076.66;;;9.12;100.00
46087;BME280;31824;49.648;8.640;2023-11-19T03:08:02;100061.56;;;9.10;100.00
46087;BME280;31824;49.648;8.640;2023-11-19T03:11:04;100072.31;;;9.13;100.00
46087;BME280;31824;49.648;8.640;2023-11-19T03:14:07;100065.38;;;9.13;100.00
46087;BME280;31824;49.648;8.640;2023-11-19T03:17:09;100068.78;;;9.12;100.00
46087;BME280;31824;49.648;8.640;2023-11-19T03:20:12;100085.09;;;9.19;100.00
46087;BME280;31824;49.648;8.640;2023-11-19T03:23:18;100082.47;;;9.19;100.00
46087;BME280;31824;49.648;8.640;2023-11-19T03:26:21;100080.59;;;9.18;100.00
46087;BME280;31824;49.648;8.640;2023-11-19T03:29:24;100067.97;;;9.22;100.00
46087;BME280;31824;49.648;8.640;2023-11-19T03:32:27;100077.50;;;9.22;100.00
46087;BME280;31824;49.648;8.640;2023-11-19T03:35:29;100075.06;;;9.23;100.00
46087;BME280;31824;49.648;8.640;2023-11-19T03:38:31;100073.97;;;9.21;100.00
46087;BME280;31824;49.648;8.640;2023-11-19T03:41:33;100071.00;;;9.27;100.00
46087;BME280;31824;49.648;8.640;2023-11-19T03:44:39;100067.47;;;9.26;100.00
46087;BME280;31824;49.648;8.640;2023-11-19T03:47:41;100068.66;;;9.30;100.00
46087;BME280;31824;49.648;8.640;2023-11-19T03:50:43;100064.50;;;9.32;100.00
46087;BME280;31824;49.648;8.640;2023-11-19T03:53:45;100067.41;;;9.35;100.00
46087;BME280;31824;49.648;8.640;2023-11-19T03:56:47;100063.13;;;9.36;100.00
46087;BME280;31824;49.648;8.640;2023-11-19T03:59:50;100073.88;;;9.39;100.00
46087;BME280;31824;49.648;8.640;2023-11-19T04:02:52;100056.56;;;9.41;100.00
46087;BME280;31824;49.648;8.640;2023-11-19T04:05:54;100048.72;;;9.41;100.00
46087;BME280;31824;49.648;8.640;2023-11-19T04:08:56;100045.47;;;9.43;100.00
46087;BME280;31824;49.648;8.640;2023-11-19T04:11:57;100047.31;;;9.44;100.00
46087;BME280;31824;49.648;8.640;2023-11-19T04:15:01;100051.31;;;9.50;100.00
46087;BME280;31824;49.648;8.640;2023-11-19T04:18:03;100050.53;;;9.51;100.00
46087;BME280;31824;49.648;8.640;2023-11-19T04:21:06;100052.22;;;9.50;100.00
46087;BME280;31824;49.648;8.640;2023-11-19T04:24:08;100052.50;;;9.53;100.00
46087;BME280;31824;49.648;8.640;2023-11-19T04:27:14;100049.22;;;9.56;100.00
46087;BME280;31824;49.648;8.640;2023-11-19T04:30:18;100056.19;;;9.55;100.00
46087;BME280;31824;49.648;8.640;2023-11-19T04:33:19;100045.22;;;9.59;100.00
46087;BME280;31824;49.648;8.640;2023-11-19T04:36:21;100048.75;;;9.60;100.00
46087;BME280;31824;49.648;8.640;2023-11-19T04:39:25;100048.75;;;9.60;100.00
46087;BME280;31824;49.648;8.640;2023-11-19T04:42:28;100048.25;;;9.64;100.00
46087;BME280;31824;49.648;8.640;2023-11-19T04:45:32;100045.31;;;9.70;100.00
46087;BME280;31824;49.648;8.640;2023-11-19T04:48:34;100052.38;;;9.71;100.00
46087;BME280;31824;49.648;8.640;2023-11-19T04:51:39;100032.47;;;9.73;100.00
46087;BME280;31824;49.648;8.640;2023-11-19T04:54:42;100036.13;;;9.75;100.00
46087;BME280;31824;49.648;8.640;2023-11-19T04:57:45;100031.06;;;9.76;100.00
46087;BME280;31824;49.648;8.640;2023-11-19T05:00:48;100043.69;;;9.80;100.00
46087;BME280;31824;49.648;8.640;2023-11-19T05:03:50;100044.59;;;9.81;100.00
46087;BME280;31824;49.648;8.640;2023-11-19T05:06:53;100050.13;;;9.84;100.00
46087;BME280;31824;49.648;8.640;2023-11-19T05:09:55;100053.69;;;9.85;100.00
46087;BME280;31824;49.648;8.640;2023-11-19T05:12:56;100044.88;;;9.84;100.00
46087;BME280;31824;49.648;8.640;2023-11-19T05:16:00;100050.56;;;9.89;100.00
46087;BME280;31824;49.648;8.640;2023-11-19T05:19:02;100045.00;;;9.86;100.00
46087;BME280;31824;49.648;8.640;2023-11-19T05:22:04;100056.59;;;9.88;100.00
46087;BME280;31824;49.648;8.640;2023-11-19T05:25:06;100047.13;;;9.90;100.00
46087;BME280;31824;49.648;8.640;2023-11-19T05:28:08;100044.69;;;9.91;100.00
46087;BME280;31824;49.648;8.640;2023-11-19T05:31:11;100039.69;;;9.94;100.00
46087;BME280;31824;49.648;8.640;2023-11-19T05:34:13;100032.88;;;9.96;100.00
46087;BME280;31824;49.648;8.640;2023-11-19T05:37:16;100027.63;;;9.96;100.00
46087;BME280;31824;49.648;8.640;2023-11-19T05:40:18;100025.00;;;9.96;100.00
46087;BME280;31824;49.648;8.640;2023-11-19T05:43:22;100016.63;;;10.01;100.00
46087;BME280;31824;49.648;8.640;2023-11-19T05:46:25;100008.91;;;10.02;100.00
46087;BME280;31824;49.648;8.640;2023-11-19T05:49:28;100016.13;;;10.05;100.00
46087;BME280;31824;49.648;8.640;2023-11-19T05:52:30;100009.47;;;10.08;100.00
46087;BME280;31824;49.648;8.640;2023-11-19T05:55:35;100003.44;;;10.09;100.00
46087;BME280;31824;49.648;8.640;2023-11-19T05:58:37;100002.81;;;10.12;100.00
46087;BME280;31824;49.648;8.640;2023-11-19T06:01:42;99993.34;;;10.14;100.00
46087;BME280;31824;49.648;8.640;2023-11-19T06:04:44;99995.47;;;10.18;100.00
46087;BME280;31824;49.648;8.640;2023-11-19T06:07:49;100000.09;;;10.21;100.00
46087;BME280;31824;49.648;8.640;2023-11-19T06:10:52;100003.63;;;10.21;100.00
46087;BME280;31824;49.648;8.640;2023-11-19T06:13:54;99995.09;;;10.24;100.00
46087;BME280;31824;49.648;8.640;2023-11-19T06:16:57;100002.63;;;10.29;100.00
46087;BME280;31824;49.648;8.640;2023-11-19T06:19:59;100008.16;;;10.33;100.00
46087;BME280;31824;49.648;8.640;2023-11-19T06:23:01;100000.28;;;10.33;100.00
46087;BME280;31824;49.648;8.640;2023-11-19T06:26:03;100006.59;;;10.35;100.00
46087;BME280;31824;49.648;8.640;2023-11-19T06:29:06;100009.53;;;10.38;100.00
46087;BME280;31824;49.648;8.640;2023-11-19T06:32:09;100023.84;;;10.41;100.00
46087;BME280;31824;49.648;8.640;2023-11-19T06:35:14;100030.16;;;10.43;100.00
46087;BME280;31824;49.648;8.640;2023-11-19T06:38:16;100024.13;;;10.44;100.00
46087;BME280;31824;49.648;8.640;2023-11-19T06:41:18;100024.13;;;10.44;100.00
46087;BME280;31824;49.648;8.640;2023-11-19T06:44:19;100031.22;;;10.45;100.00
46087;BME280;31824;49.648;8.640;2023-11-19T06:47:25;100034.91;;;10.47;100.00
46087;BME280;31824;49.648;8.640;2023-11-19T06:50:27;100039.38;;;10.49;100.00
46087;BME280;31824;49.648;8.640;2023-11-19T06:53:29;100052.78;;;10.52;100.00
46087;BME280;31824;49.648;8.640;2023-11-19T06:56:31;100060.03;;;10.54;100.00
46087;BME280;31824;49.648;8.640;2023-11-19T06:59:33;100060.03;;;10.54;100.00
46087;BME280;31824;49.648;8.640;2023-11-19T07:02:36;100059.25;;;10.55;100.00
46087;BME280;31824;49.648;8.640;2023-11-19T07:05:38;100068.56;;;10.62;100.00
46087;BME280;31824;49.648;8.640;2023-11-19T07:08:41;100064.38;;;10.64;100.00
46087;BME280;31824;49.648;8.640;2023-11-19T07:11:42;100071.88;;;10.59;100.00
46087;BME280;31824;49.648;8.640;2023-11-19T07:14:45;100061.00;;;10.65;100.00
46087;BME280;31824;49.648;8.640;2023-11-19T07:17:49;100070.94;;;10.59;100.00
46087;BME280;31824;49.648;8.640;2023-11-19T07:21:04;100073.31;;;10.66;100.00
46087;BME280;31824;49.648;8.640;2023-11-19T07:24:07;100077.28;;;10.71;100.00
46087;BME280;31824;49.648;8.640;2023-11-19T07:27:08;100074.16;;;10.75;100.00
46087;BME280;31824;49.648;8.640;2023-11-19T07:30:10;100071.00;;;10.79;100.00
46087;BME280;31824;49.648;8.640;2023-11-19T07:33:13;100067.22;;;10.86;100.00
46087;BME280;31824;49.648;8.640;2023-11-19T07:36:15;100073.69;;;10.90;100.00
46087;BME280;31824;49.648;8.640;2023-11-19T07:39:17;100066.97;;;10.83;100.00
46087;BME280;31824;49.648;8.640;2023-11-19T07:42:19;100073.78;;;10.81;100.00
46087;BME280;31824;49.648;8.640;2023-11-19T07:45:21;100071.66;;;10.77;100.00
46087;BME280;31824;49.648;8.640;2023-11-19T07:48:24;100075.63;;;10.82;100.00
46087;BME280;31824;49.648;8.640;2023-11-19T07:51:27;100075.81;;;10.94;100.00
46087;BME280;31824;49.648;8.640;2023-11-19T07:54:29;100075.09;;;10.86;100.00
46087;BME280;31824;49.648;8.640;2023-11-19T07:57:31;100078.81;;;10.88;100.00
46087;BME280;31824;49.648;8.640;2023-11-19T08:00:32;100079.06;;;10.91;100.00
46087;BME280;31824;49.648;8.640;2023-11-19T08:03:36;100081.56;;;10.90;100.00
46087;BME280;31824;49.648;8.640;2023-11-19T08:06:38;100087.88;;;10.92;100.00
46087;BME280;31824;49.648;8.640;2023-11-19T08:09:40;100096.31;;;10.98;100.00
46087;BME280;31824;49.648;8.640;2023-11-19T08:12:41;100094.38;;;11.06;100.00
46087;BME280;31824;49.648;8.640;2023-11-19T08:15:43;100095.69;;;11.11;100.00
46087;BME280;31824;49.648;8.640;2023-11-19T08:18:47;100095.84;;;11.23;100.00
46087;BME280;31824;49.648;8.640;2023-11-19T08:21:48;100105.06;;;11.28;100.00
46087;BME280;31824;49.648;8.640;2023-11-19T08:24:50;100100.84;;;11.30;100.00
46087;BME280;31824;49.648;8.640;2023-11-19T08:27:52;100109.28;;;11.36;100.00
46087;BME280;31824;49.648;8.640;2023-11-19T08:30:54;100101.97;;;11.42;100.00
46087;BME280;31824;49.648;8.640;2023-11-19T08:33:57;100095.66;;;11.51;100.00
46087;BME280;31824;49.648;8.640;2023-11-19T08:36:59;100096.94;;;11.56;100.00
46087;BME280;31824;49.648;8.640;2023-11-19T08:40:01;100104.84;;;11.56;100.00
46087;BME280;31824;49.648;8.640;2023-11-19T08:43:03;100097.38;;;11.60;100.00
46087;BME280;31824;49.648;8.640;2023-11-19T08:46:09;100095.91;;;11.64;100.00
46087;BME280;31824;49.648;8.640;2023-11-19T08:49:12;100085.38;;;11.64;100.00
46087;BME280;31824;49.648;8.640;2023-11-19T08:52:14;100076.69;;;11.65;100.00
46087;BME280;31824;49.648;8.640;2023-11-19T08:55:16;100087.34;;;11.66;100.00
46087;BME280;31824;49.648;8.640;2023-11-19T08:58:18;100110.38;;;11.69;100.00
46087;BME280;31824;49.648;8.640;2023-11-19T09:01:19;100126.81;;;11.66;100.00
46087;BME280;31824;49.648;8.640;2023-11-19T09:04:23;100125.25;;;11.69;100.00
46087;BME280;31824;49.648;8.640;2023-11-19T09:07:25;100123.28;;;11.66;100.00
46087;BME280;31824;49.648;8.640;2023-11-19T09:10:27;100129.75;;;11.70;100.00
46087;BME280;31824;49.648;8.640;2023-11-19T09:13:29;100123.97;;;11.74;100.00
46087;BME280;31824;49.648;8.640;2023-11-19T09:16:31;100124.22;;;11.77;100.00
46087;BME280;31824;49.648;8.640;2023-11-19T09:19:35;100126.72;;;11.75;100.00
46087;BME280;31824;49.648;8.640;2023-11-19T09:22:37;100115.53;;;11.78;100.00
46087;BME280;31824;49.648;8.640;2023-11-19T09:25:39;100139.59;;;11.82;100.00
46087;BME280;31824;49.648;8.640;2023-11-19T09:28:44;100124.59;;;11.81;100.00
46087;BME280;31824;49.648;8.640;2023-11-19T09:31:45;100121.31;;;11.84;100.00
46087;BME280;31824;49.648;8.640;2023-11-19T09:34:48;100116.69;;;11.81;100.00
46087;BME280;31824;49.648;8.640;2023-11-19T09:37:50;100115.25;;;11.85;100.00
46087;BME280;31824;49.648;8.640;2023-11-19T09:40:52;100107.38;;;11.85;100.00
46087;BME280;31824;49.648;8.640;2023-11-19T09:43:54;100110.66;;;11.82;100.00
46087;BME280;31824;49.648;8.640;2023-11-19T09:46:57;100121.06;;;11.91;100.00
46087;BME280;31824;49.648;8.640;2023-11-19T09:50:01;100121.47;;;11.96;100.00
46087;BME280;31824;49.648;8.640;2023-11-19T09:53:02;100125.03;;;11.96;100.00
46087;BME280;31824;49.648;8.640;2023-11-19T09:56:05;100127.25;;;11.92;100.00
46087;BME280;31824;49.648;8.640;2023-11-19T09:59:08;100137.00;;;11.93;100.00
46087;BME280;31824;49.648;8.640;2023-11-19T10:02:12;100122.75;;;11.91;100.00
46087;BME280;31824;49.648;8.640;2023-11-19T10:05:16;100122.75;;;11.91;100.00
46087;BME280;31824;49.648;8.640;2023-11-19T10:08:19;100130.41;;;11.88;100.00
46087;BME280;31824;49.648;8.640;2023-11-19T10:11:21;100107.50;;;11.87;100.00
46087;BME280;31824;49.648;8.640;2023-11-19T10:14:23;100107.91;;;11.81;100.00
46087;BME280;31824;49.648;8.640;2023-11-19T10:17:29;100118.28;;;11.79;100.00
46087;BME280;31824;49.648;8.640;2023-11-19T10:20:40;100115.53;;;11.78;100.00
46087;BME280;31824;49.648;8.640;2023-11-19T10:23:50;100118.03;;;11.76;100.00
46087;BME280;31824;49.648;8.640;2023-11-19T10:26:56;100103.28;;;11.78;100.00
46087;BME280;31824;49.648;8.640;2023-11-19T10:29:59;100105.00;;;11.78;100.00
46087;BME280;31824;49.648;8.640;2023-11-19T10:33:05;100106.69;;;11.77;100.00
46087;BME280;31824;49.648;8.640;2023-11-19T10:36:09;100113.41;;;11.84;100.00
46087;BME280;31824;49.648;8.640;2023-11-19T10:39:11;100095.94;;;11.95;100.00
46087;BME280;31824;49.648;8.640;2023-11-19T10:42:15;100108.16;;;12.05;100.00
46087;BME280;31824;49.648;8.640;2023-11-19T10:45:22;100106.31;;;12.14;100.00
46087;BME280;31824;49.648;8.640;2023-11-19T10:48:24;100098.00;;;12.30;100.00
46087;BME280;31824;49.648;8.640;2023-11-19T10:51:29;100104.00;;;12.60;100.00
46087;BME280;31824;49.648;8.640;2023-11-19T10:54:31;100096.63;;;12.88;100.00
46087;BME280;31824;49.648;8.640;2023-11-19T10:57:36;100093.53;;;13.04;100.00
46087;BME280;31824;49.648;8.640;2023-11-19T11:00:44;100081.13;;;13.36;100.00
46087;BME280;31824;49.648;8.640;2023-11-19T11:03:47;100072.19;;;13.45;100.00
46087;BME280;31824;49.648;8.640;2023-11-19T11:06:54;100079.38;;;13.36;100.00
46087;BME280;31824;49.648;8.640;2023-11-19T11:09:58;100081.63;;;13.31;100.00
46087;BME280;31824;49.648;8.640;2023-11-19T11:13:02;100071.19;;;13.55;100.00
46087;BME280;31824;49.648;8.640;2023-11-19T11:16:06;100060.50;;;13.88;100.00
46087;BME280;31824;49.648;8.640;2023-11-19T11:19:09;100052.59;;;13.88;100.00
46087;BME280;31824;49.648;8.640;2023-11-19T11:22:14;100052.94;;;13.58;100.00
46087;BME280;31824;49.648;8.640;2023-11-19T11:25:43;100051.22;;;13.25;100.00
46087;BME280;31824;49.648;8.640;2023-11-19T11:28:57;100051.72;;;13.53;100.00
46087;BME280;31824;49.648;8.640;2023-11-19T11:32:06;100071.75;;;13.51;100.00
46087;BME280;31824;49.648;8.640;2023-11-19T11:35:29;100067.59;;;13.43;100.00
46087;BME280;31824;49.648;8.640;2023-11-19T11:38:36;100065.72;;;13.64;100.00
46087;BME280;31824;49.648;8.640;2023-11-19T11:41:41;100072.94;;;13.55;100.00
46087;BME280;31824;49.648;8.640;2023-11-19T11:44:58;100072.09;;;13.90;100.00
46087;BME280;31824;49.648;8.640;2023-11-19T11:48:09;100068.88;;;13.94;100.00
46087;BME280;31824;49.648;8.640;2023-11-19T11:51:12;100069.44;;;13.78;100.00
46087;BME280;31824;49.648;8.640;2023-11-19T11:54:27;100074.75;;;13.56;100.00
46087;BME280;31824;49.648;8.640;2023-11-19T11:57:36;100058.28;;;13.70;100.00
46087;BME280;31824;49.648;8.640;2023-11-19T12:00:40;100059.91;;;13.80;100.00
46087;BME280;31824;49.648;8.640;2023-11-19T12:03:42;100064.31;;;13.91;100.00
46087;BME280;31824;49.648;8.640;2023-11-19T12:07:03;100058.91;;;14.01;100.00
46087;BME280;31824;49.648;8.640;2023-11-19T12:10:10;100056.41;;;14.62;100.00
46087;BME280;31824;49.648;8.640;2023-11-19T12:13:20;100064.00;;;14.81;100.00
46087;BME280;31824;49.648;8.640;2023-11-19T12:16:25;100053.72;;;14.98;100.00
46087;BME280;31824;49.648;8.640;2023-11-19T12:19:29;100042.50;;;14.77;100.00
46087;BME280;31824;49.648;8.640;2023-11-19T12:22:31;100045.50;;;14.81;100.00
46087;BME280;31824;49.648;8.640;2023-11-19T12:25:35;100044.47;;;14.56;100.00
46087;BME280;31824;49.648;8.640;2023-11-19T12:28:37;100041.09;;;14.82;100.00
46087;BME280;31824;49.648;8.640;2023-11-19T12:31:44;100041.94;;;14.45;100.00
46087;BME280;31824;49.648;8.640;2023-11-19T12:34:46;100046.56;;;14.72;100.00
46087;BME280;31824;49.648;8.640;2023-11-19T12:37:49;100039.31;;;14.69;100.00
46087;BME280;31824;49.648;8.640;2023-11-19T12:41:07;100030.44;;;14.45;100.00
46087;BME280;31824;49.648;8.640;2023-11-19T12:44:09;100027.34;;;14.39;100.00
46087;BME280;31824;49.648;8.640;2023-11-19T12:47:12;100030.44;;;14.45;100.00
46087;BME280;31824;49.648;8.640;2023-11-19T12:50:15;100038.88;;;15.00;100.00
46087;BME280;31824;49.648;8.640;2023-11-19T12:53:18;100041.47;;;16.40;100.00
46087;BME280;31824;49.648;8.640;2023-11-19T12:56:22;100041.88;;;16.59;100.00
46087;BME280;31824;49.648;8.640;2023-11-19T12:59:24;100040.91;;;16.85;100.00
46087;BME280;31824;49.648;8.640;2023-11-19T13:02:44;100025.31;;;15.58;100.00
46087;BME280;31824;49.648;8.640;2023-11-19T13:05:46;100026.59;;;16.42;100.00
46087;BME280;31824;49.648;8.640;2023-11-19T13:08:48;100031.28;;;16.59;100.00
46087;BME280;31824;49.648;8.640;2023-11-19T13:11:53;100019.63;;;16.70;100.00
46087;BME280;31824;49.648;8.640;2023-11-19T13:14:55;100019.50;;;16.82;100.00
46087;BME280;31824;49.648;8.640;2023-11-19T13:17:57;100011.38;;;16.12;100.00
46087;BME280;31824;49.648;8.640;2023-11-19T13:21:00;100018.94;;;16.46;100.00
46087;BME280;31824;49.648;8.640;2023-11-19T13:24:01;100013.94;;;16.37;100.00
46087;BME280;31824;49.648;8.640;2023-11-19T13:27:04;100006.94;;;17.21;100.00
46087;BME280;31824;49.648;8.640;2023-11-19T13:30:07;100006.84;;;16.92;100.00
46087;BME280;31824;49.648;8.640;2023-11-19T13:33:28;100002.75;;;16.83;100.00
46087;BME280;31824;49.648;8.640;2023-11-19T13:36:30;100003.00;;;16.73;100.00
46087;BME280;31824;49.648;8.640;2023-11-19T13:39:32;100014.03;;;16.12;100.00
46087;BME280;31824;49.648;8.640;2023-11-19T13:42:36;100002.59;;;15.86;100.00
46087;BME280;31824;49.648;8.640;2023-11-19T13:45:38;99999.88;;;15.73;100.00
46087;BME280;31824;49.648;8.640;2023-11-19T13:48:39;99979.78;;;15.63;100.00
46087;BME280;31824;49.648;8.640;2023-11-19T13:51:41;99986.53;;;15.33;100.00
46087;BME280;31824;49.648;8.640;2023-11-19T13:54:43;99983.09;;;15.34;100.00
46087;BME280;31824;49.648;8.640;2023-11-19T13:57:46;99972.50;;;15.47;100.00
46087;BME280;31824;49.648;8.640;2023-11-19T14:00:50;99982.84;;;15.31;100.00
46087;BME280;31824;49.648;8.640;2023-11-19T14:03:52;99971.16;;;15.27;100.00
46087;BME280;31824;49.648;8.640;2023-11-19T14:06:54;99977.34;;;15.28;100.00
46087;BME280;31824;49.648;8.640;2023-11-19T14:09:57;99980.75;;;15.13;100.00
46087;BME280;31824;49.648;8.640;2023-11-19T14:13:01;99975.25;;;15.10;100.00
46087;BME280;31824;49.648;8.640;2023-11-19T14:16:03;99974.09;;;15.07;100.00
46087;BME280;31824;49.648;8.640;2023-11-19T14:19:06;99976.94;;;14.84;100.00
46087;BME280;31824;49.648;8.640;2023-11-19T14:22:08;99981.16;;;14.69;100.00
46087;BME280;31824;49.648;8.640;2023-11-19T14:25:11;99982.03;;;14.81;100.00
46087;BME280;31824;49.648;8.640;2023-11-19T14:28:14;99987.16;;;14.92;100.00
46087;BME280;31824;49.648;8.640;2023-11-19T14:31:16;99985.28;;;14.65;100.00
46087;BME280;31824;49.648;8.640;2023-11-19T14:34:18;99987.13;;;14.66;100.00
46087;BME280;31824;49.648;8.640;2023-11-19T14:37:20;99995.41;;;14.35;100.00
46087;BME280;31824;49.648;8.640;2023-11-19T14:40:22;100018.84;;;14.31;100.00
46087;BME280;31824;49.648;8.640;2023-11-19T14:43:43;100011.03;;;14.32;100.00
46087;BME280;31824;49.648;8.640;2023-11-19T14:46:45;99998.88;;;14.23;100.00
46087;BME280;31824;49.648;8.640;2023-11-19T14:49:47;100006.91;;;14.36;100.00
46087;BME280;31824;49.648;8.640;2023-11-19T14:52:49;100008.75;;;14.25;100.00
46087;BME280;31824;49.648;8.640;2023-11-19T14:55:51;99996.78;;;14.30;100.00
46087;BME280;31824;49.648;8.640;2023-11-19T14:58:54;100001.16;;;14.30;100.00
46087;BME280;31824;49.648;8.640;2023-11-19T15:01:56;99998.84;;;14.34;100.00
46087;BME280;31824;49.648;8.640;2023-11-19T15:04:58;100002.31;;;14.22;100.00
46087;BME280;31824;49.648;8.640;2023-11-19T15:08:00;100016.78;;;14.15;100.00
46087;BME280;31824;49.648;8.640;2023-11-19T15:11:02;100006.47;;;14.06;100.00
46087;BME280;31824;49.648;8.640;2023-11-19T15:14:07;100003.56;;;14.03;100.00
46087;BME280;31824;49.648;8.640;2023-11-19T15:17:09;100001.59;;;14.00;100.00
46087;BME280;31824;49.648;8.640;2023-11-19T15:20:12;99997.72;;;14.07;100.00
46087;BME280;31824;49.648;8.640;2023-11-19T15:23:17;100005.63;;;14.07;100.00
46087;BME280;31824;49.648;8.640;2023-11-19T15:26:18;100001.41;;;14.09;100.00
46087;BME280;31824;49.648;8.640;2023-11-19T15:29:22;100005.75;;;13.97;100.00
46087;BME280;31824;49.648;8.640;2023-11-19T15:32:25;99997.25;;;14.01;100.00
46087;BME280;31824;49.648;8.640;2023-11-19T15:35:27;100001.84;;;13.92;100.00
46087;BME280;31824;49.648;8.640;2023-11-19T15:38:29;99999.19;;;13.92;100.00
46087;BME280;31824;49.648;8.640;2023-11-19T15:41:31;99995.75;;;13.81;100.00
46087;BME280;31824;49.648;8.640;2023-11-19T15:44:34;100004.09;;;13.63;100.00
46087;BME280;31824;49.648;8.640;2023-11-19T15:47:36;99991.22;;;13.68;100.00
46087;BME280;31824;49.648;8.640;2023-11-19T15:50:38;99990.50;;;13.47;100.00
46087;BME280;31824;49.648;8.640;2023-11-19T15:53:40;99995.34;;;13.53;100.00